Time;durP1;ratioP1;P1;durP2;ratioP2;P2;SDS_P1;SDS_P2;PMS_P1;PMS_P2;Temp;Humidity;BMP_temperature;BMP_pressure;BME280_temperature;BME280_humidity;BME280_pressure;Samples;Min_cycle;Max_cycle;Signal;HPM_P1;HPM_P2
2023/07/13 00:00:09;;;;;;;3.80;2.27;;;;;;;13.61;96.21;99163.36;1746859;81;21012;-70
2023/07/13 00:02:37;;;;;;;6.30;2.62;;;;;;;13.42;96.13;99141.50;1744314;81;21030;-62
2023/07/13 00:05:04;;;;;;;4.27;2.93;;;;;;;13.55;96.34;99171.17;1747244;81;20957;-68
2023/07/13 00:07:31;;;;;;;4.80;2.35;;;;;;;13.52;96.42;99171.38;1740473;81;20954;-69
2023/07/13 00:09:58;;;;;;;3.57;2.17;;;;;;;13.49;96.67;99172.91;1748779;81;21119;-70
2023/07/13 00:12:29;;;;;;;4.50;2.52;;;;;;;13.49;96.91;99174.22;1747036;81;21100;-68
2023/07/13 00:15:00;;;;;;;7.72;2.50;;;;;;;13.53;98.10;99169.15;1744879;81;21144;-63
2023/07/13 00:17:28;;;;;;;4.17;2.27;;;;;;;13.84;99.34;99173.60;1707843;82;21618;-66
2023/07/13 00:19:56;;;;;;;4.45;2.60;;;;;;;13.84;99.34;99173.60;1680711;84;21638;-72
2023/07/13 00:22:25;;;;;;;5.87;2.45;;;;;;;14.10;99.47;99167.34;1711902;82;21025;-72
2023/07/13 00:24:55;;;;;;;7.28;2.83;;;;;;;14.10;99.47;99167.34;1746248;81;21600;-70
2023/07/13 00:27:23;;;;;;;6.12;2.37;;;;;;;14.21;99.29;99171.02;1744378;81;21413;-71
2023/07/13 00:29:51;;;;;;;4.45;2.70;;;;;;;14.28;98.97;99166.98;1742252;81;21129;-66
2023/07/13 00:32:19;;;;;;;5.08;2.45;;;;;;;14.28;98.77;99151.23;1746696;81;21012;-71
2023/07/13 00:34:48;;;;;;;6.97;3.33;;;;;;;14.37;99.28;99145.34;1693285;83;21056;-69
2023/07/13 00:37:21;;;;;;;7.65;2.83;;;;;;;14.45;99.55;99142.13;1679753;84;21017;-71
2023/07/13 00:39:44;;;;;;;5.83;2.72;;;;;;;14.54;99.50;99141.05;1706475;83;21099;-67
2023/07/13 00:42:15;;;;;;;4.17;2.47;;;;;;;14.59;99.28;99142.48;1709862;82;21579;-69
2023/07/13 00:44:41;;;;;;;5.67;2.60;;;;;;;14.63;99.04;99135.59;1676788;84;21043;-67
2023/07/13 00:47:08;;;;;;;7.85;2.95;;;;;;;14.64;99.30;99141.67;1686117;83;21002;-63
2023/07/13 00:49:36;;;;;;;9.65;2.85;;;;;;;14.69;99.57;99150.06;1679283;85;21962;-69
2023/07/13 00:52:06;;;;;;;9.70;3.08;;;;;;;14.72;99.42;99145.41;1709275;82;20958;-64
2023/07/13 00:54:36;;;;;;;6.03;2.65;;;;;;;14.75;99.67;99147.81;1683948;84;21002;-70
2023/07/13 00:57:06;;;;;;;5.28;2.70;;;;;;;14.76;99.49;99156.08;1681096;84;21005;-64
2023/07/13 00:59:35;;;;;;;4.65;2.52;;;;;;;14.75;99.16;99163.58;1710463;84;21580;-71
2023/07/13 01:02:03;;;;;;;5.85;2.42;;;;;;;14.72;98.91;99168.23;1686165;83;21029;-61
2023/07/13 01:04:29;;;;;;;6.70;2.87;;;;;;;14.68;99.17;99174.19;1677690;84;21032;-71
2023/07/13 01:06:57;;;;;;;4.12;2.20;;;;;;;14.71;99.23;99174.45;1712086;82;20997;-69
2023/07/13 01:09:26;;;;;;;5.17;2.62;;;;;;;14.73;99.29;99183.03;1692782;83;21014;-71
2023/07/13 01:11:52;;;;;;;10.95;2.67;;;;;;;14.73;99.44;99175.15;1681577;84;21022;-71
2023/07/13 01:14:18;;;;;;;9.78;2.58;;;;;;;14.74;99.36;99174.22;1712452;83;21108;-66
2023/07/13 01:16:49;;;;;;;5.40;2.83;;;;;;;14.76;99.75;99178.41;1692096;84;21022;-69
2023/07/13 01:19:25;;;;;;;5.70;2.90;;;;;;;14.76;99.75;99180.20;1682905;84;20994;-70
2023/07/13 01:21:52;;;;;;;5.08;2.55;;;;;;;14.81;99.91;99185.94;1676969;83;21041;-62
2023/07/13 01:24:18;;;;;;;5.53;2.83;;;;;;;14.81;99.71;99184.63;1681540;84;21119;-71
2023/07/13 01:26:45;;;;;;;7.42;2.58;;;;;;;14.83;99.62;99190.62;1713533;82;20970;-65
2023/07/13 01:29:11;;;;;;;8.18;3.00;;;;;;;14.83;99.63;99183.22;1713285;82;20978;-69
2023/07/13 01:31:37;;;;;;;5.35;2.67;;;;;;;14.81;99.65;99183.31;1687621;83;21536;-70
2023/07/13 01:34:23;;;;;;;8.63;3.02;;;;;;;14.82;99.70;99179.75;1656833;85;20965;-67
2023/07/13 01:36:53;;;;;;;5.03;2.37;;;;;;;14.82;99.70;99186.33;1686154;83;21028;-62
2023/07/13 01:39:18;;;;;;;4.33;2.55;;;;;;;14.83;99.80;99180.59;1712650;82;20960;-71
2023/07/13 01:41:44;;;;;;;7.12;2.60;;;;;;;14.81;99.74;99178.05;1715568;82;21563;-70
2023/07/13 01:44:10;;;;;;;8.83;2.85;;;;;;;14.79;99.73;99185.23;1689417;83;20987;-64
2023/07/13 01:46:36;;;;;;;10.68;2.70;;;;;;;14.78;99.87;99183.55;1690393;83;21089;-64
2023/07/13 01:49:03;;;;;;;4.47;2.50;;;;;;;14.78;99.86;99187.48;1664871;84;20988;-63
2023/07/13 01:51:29;;;;;;;7.90;2.90;;;;;;;14.78;99.96;99186.17;1657740;85;21098;-72
2023/07/13 01:53:55;;;;;;;3.15;2.00;;;;;;;14.76;100.00;99188.92;1661680;85;21061;-66
2023/07/13 01:56:22;;;;;;;8.10;2.67;;;;;;;14.76;100.00;99193.35;1684428;83;21031;-62
2023/07/13 01:58:48;;;;;;;5.97;2.47;;;;;;;14.76;100.00;99195.98;1714146;82;20976;-63
2023/07/13 02:01:14;;;;;;;5.95;2.58;;;;;;;14.75;100.00;99199.53;1713045;82;21508;-71
2023/07/13 02:03:41;;;;;;;7.73;3.07;;;;;;;14.74;100.00;99200.50;1691513;84;21082;-70
2023/07/13 02:06:07;;;;;;;6.60;2.70;;;;;;;14.74;100.00;99196.55;1694972;83;21033;-70
2023/07/13 02:08:34;;;;;;;4.42;2.62;;;;;;;14.74;100.00;99197.88;1665031;84;21076;-71
2023/07/13 02:11:03;;;;;;;13.45;3.58;;;;;;;14.74;100.00;99203.13;1683624;84;21090;-62
2023/07/13 02:13:30;;;;;;;4.25;2.37;;;;;;;14.75;100.00;99202.16;1682131;84;21078;-66
2023/07/13 02:15:56;;;;;;;6.43;2.30;;;;;;;14.75;100.00;99200.85;1714836;82;21020;-71
2023/07/13 02:18:22;;;;;;;7.05;2.95;;;;;;;14.74;100.00;99203.13;1714972;82;20957;-71
2023/07/13 02:20:48;;;;;;;5.50;2.72;;;;;;;14.73;100.00;99204.05;1715841;82;20961;-67
2023/07/13 02:23:15;;;;;;;10.08;3.15;;;;;;;14.74;100.00;99205.27;1712512;82;21044;-71
2023/07/13 02:25:41;;;;;;;5.58;3.27;;;;;;;14.76;100.00;99201.23;1719262;82;21118;-63
2023/07/13 02:28:07;;;;;;;4.95;2.60;;;;;;;14.78;100.00;99201.94;1695572;83;21037;-67
2023/07/13 02:30:35;;;;;;;9.20;3.22;;;;;;;14.79;100.00;99201.01;1661156;85;21009;-71
2023/07/13 02:33:02;;;;;;;7.55;2.52;;;;;;;14.80;100.00;99215.81;1713293;82;21599;-71
2023/07/13 02:35:28;;;;;;;5.35;2.52;;;;;;;14.83;100.00;99220.84;1707916;82;21057;-62
2023/07/13 02:37:55;;;;;;;10.43;3.45;;;;;;;14.85;100.00;99213.70;1709976;82;21061;-62
2023/07/13 02:40:22;;;;;;;4.90;2.40;;;;;;;14.85;100.00;99216.33;1670253;84;20978;-63
2023/07/13 02:42:48;;;;;;;5.97;2.75;;;;;;;14.85;100.00;99213.70;1655654;85;20979;-70
2023/07/13 02:45:18;;;;;;;8.15;2.67;;;;;;;14.86;100.00;99222.41;1712260;82;21539;-63
2023/07/13 02:47:42;;;;;;;9.23;3.30;;;;;;;14.88;100.00;99229.23;1710806;82;21008;-70
2023/07/13 02:50:09;;;;;;;7.17;2.77;;;;;;;14.93;100.00;99215.77;1709550;83;21004;-69
2023/07/13 02:52:36;;;;;;;6.90;2.40;;;;;;;14.95;100.00;99214.68;1709080;82;20985;-62
2023/07/13 02:55:02;;;;;;;6.87;2.65;;;;;;;14.99;100.00;99224.03;1683011;82;21015;-70
2023/07/13 02:57:30;;;;;;;5.10;2.85;;;;;;;15.05;100.00;99221.91;1684563;84;20965;-62
2023/07/13 02:59:56;;;;;;;5.75;2.47;;;;;;;15.09;100.00;99215.46;1684439;84;21033;-71
2023/07/13 03:02:22;;;;;;;5.90;2.52;;;;;;;15.12;100.00;99209.97;1686201;83;21034;-70
2023/07/13 03:04:49;;;;;;;10.60;3.40;;;;;;;15.16;100.00;99210.13;1687969;84;21504;-70
2023/07/13 03:07:15;;;;;;;6.50;2.77;;;;;;;15.19;100.00;99213.84;1710291;83;21685;-65
2023/07/13 03:09:41;;;;;;;8.23;2.97;;;;;;;15.23;100.00;99212.64;1709577;82;21072;-70
2023/07/13 03:12:08;;;;;;;7.50;2.75;;;;;;;15.28;100.00;99213.14;1709842;82;21075;-65
2023/07/13 03:14:34;;;;;;;5.85;2.50;;;;;;;15.32;100.00;99211.11;1708240;82;21135;-69
2023/07/13 03:17:01;;;;;;;6.53;2.92;;;;;;;15.36;100.00;99215.20;1674068;84;20991;-67
2023/07/13 03:19:27;;;;;;;7.92;2.67;;;;;;;15.37;100.00;99211.61;1683859;83;21011;-63
2023/07/13 03:21:53;;;;;;;7.05;2.52;;;;;;;15.48;100.00;99216.07;1706735;82;20988;-66
2023/07/13 03:24:20;;;;;;;6.12;2.37;;;;;;;15.53;100.00;99221.83;1706498;83;21628;-69
2023/07/13 03:26:46;;;;;;;4.90;2.50;;;;;;;15.53;100.00;99225.29;1705841;82;21674;-66
2023/07/13 03:29:12;;;;;;;5.03;2.33;;;;;;;15.56;100.00;99224.22;1704726;82;21111;-70
2023/07/13 03:31:40;;;;;;;7.62;2.67;;;;;;;15.58;100.00;99224.95;1683456;84;21134;-64
2023/07/13 03:34:06;;;;;;;10.00;2.67;;;;;;;15.60;100.00;99230.91;1685614;84;21004;-68
2023/07/13 03:36:33;;;;;;;5.08;2.17;;;;;;;15.59;100.00;99226.63;1689199;83;20948;-67
2023/07/13 03:39:02;;;;;;;8.23;2.65;;;;;;;15.59;100.00;99229.25;1685417;84;21582;-70
2023/07/13 03:41:29;;;;;;;6.80;2.83;;;;;;;15.61;100.00;99233.93;1686771;84;21076;-71
2023/07/13 03:43:56;;;;;;;7.05;2.25;;;;;;;15.63;100.00;99242.55;1686414;83;21102;-63
2023/07/13 03:46:24;;;;;;;6.08;2.67;;;;;;;15.66;100.00;99228.67;1686820;83;20955;-63
2023/07/13 03:48:50;;;;;;;5.35;2.72;;;;;;;15.67;100.00;99238.23;1685498;83;21113;-68
2023/07/13 03:51:19;;;;;;;5.87;2.63;;;;;;;15.72;100.00;99231.34;1685931;84;21066;-67
2023/07/13 03:53:47;;;;;;;11.90;3.05;;;;;;;15.76;100.00;99224.88;1702441;83;20980;-70
2023/07/13 03:56:15;;;;;;;6.67;2.37;;;;;;;15.79;100.00;99225.95;1693229;83;20979;-66
2023/07/13 03:58:45;;;;;;;5.83;2.37;;;;;;;15.85;100.00;99226.83;1663279;85;21541;-64
2023/07/13 04:01:12;;;;;;;7.22;2.42;;;;;;;15.89;100.00;99230.89;1661451;85;21013;-61
2023/07/13 04:03:39;;;;;;;3.58;2.00;;;;;;;15.94;100.00;99223.13;1714063;82;21039;-67
2023/07/13 04:06:07;;;;;;;9.23;3.05;;;;;;;16.00;100.00;99233.19;1714397;82;21035;-69
2023/07/13 04:08:37;;;;;;;7.72;2.62;;;;;;;16.08;100.00;99238.70;1712892;82;20979;-70
2023/07/13 04:11:04;;;;;;;6.87;2.37;;;;;;;16.15;100.00;99239.87;1713168;82;21019;-72
2023/07/13 04:13:31;;;;;;;;;;;;;;;16.21;100.00;99235.92;1714781;82;21607;-70
2023/07/13 04:15:57;;;;;;;8.93;2.55;;;;;;;16.28;100.00;99236.65;1715577;82;20181;-63
2023/07/13 04:18:24;;;;;;;9.10;3.13;;;;;;;16.31;100.00;99240.36;1713612;82;20967;-70
2023/07/13 04:20:51;;;;;;;5.57;2.37;;;;;;;16.40;100.00;99237.95;1714415;82;21073;-62
2023/07/13 04:23:18;;;;;;;6.72;3.22;;;;;;;16.48;100.00;99232.92;1713763;82;21041;-70
2023/07/13 04:25:52;;;;;;;4.62;2.00;;;;;;;16.56;100.00;99241.06;1713931;82;21053;-72
2023/07/13 04:28:23;;;;;;;7.45;2.37;;;;;;;16.66;100.00;99247.25;1711795;82;21562;-70
2023/07/13 04:30:50;;;;;;;4.45;2.30;;;;;;;16.78;100.00;99251.59;1715681;82;21133;-63
2023/07/13 04:33:17;;;;;;;5.95;2.37;;;;;;;16.89;100.00;99257.81;1712003;82;21056;-65
2023/07/13 04:35:46;;;;;;;8.60;2.67;;;;;;;17.01;100.00;99256.80;1712335;82;21526;-72
2023/07/13 04:38:12;;;;;;;6.95;2.47;;;;;;;17.12;100.00;99266.00;1708534;82;21041;-72
2023/07/13 04:40:39;;;;;;;4.17;2.10;;;;;;;17.20;100.00;99259.61;1708254;82;21064;-67
2023/07/13 04:43:05;;;;;;;6.53;2.52;;;;;;;17.31;100.00;99261.37;1710409;82;20985;-68
2023/07/13 04:45:31;;;;;;;7.17;2.60;;;;;;;17.38;100.00;99255.09;1708756;82;21031;-64
2023/07/13 04:47:58;;;;;;;6.58;2.20;;;;;;;17.50;100.00;99250.11;1706281;82;21503;-66
2023/07/13 04:50:26;;;;;;;6.57;2.17;;;;;;;17.61;100.00;99247.41;1708579;82;21537;-72
2023/07/13 04:52:53;;;;;;;5.17;2.50;;;;;;;17.78;100.00;99250.42;1709784;82;21579;-62
2023/07/13 04:55:20;;;;;;;7.17;2.20;;;;;;;17.94;100.00;99244.72;1716372;82;21322;-68
2023/07/13 04:57:47;;;;;;;6.75;2.45;;;;;;;18.16;100.00;99249.01;1711117;82;20961;-62
2023/07/13 05:00:15;;;;;;;;;;;;;;;18.35;100.00;99249.09;1718837;82;21054;-66
2023/07/13 05:02:46;;;;;;;5.95;2.10;;;;;;;18.56;100.00;99249.00;1712329;82;20105;-67
2023/07/13 05:05:13;;;;;;;9.88;2.70;;;;;;;18.65;100.00;99250.00;1712637;82;21531;-64
2023/07/13 05:07:40;;;;;;;7.03;2.35;;;;;;;18.76;100.00;99244.63;1711930;82;21019;-62
2023/07/13 05:10:08;;;;;;;8.30;2.65;;;;;;;18.87;100.00;99248.96;1692120;82;21076;-62
2023/07/13 05:12:36;;;;;;;8.40;2.62;;;;;;;18.84;100.00;99255.36;1674485;84;21074;-64
2023/07/13 05:15:06;;;;;;;7.12;2.37;;;;;;;18.80;100.00;99253.97;1679879;84;21114;-65
2023/07/13 05:17:32;;;;;;;7.00;2.50;;;;;;;18.78;100.00;99257.23;1661012;85;21023;-68
2023/07/13 05:19:58;;;;;;;7.20;2.05;;;;;;;18.84;100.00;99265.94;1630073;87;21038;-73
2023/07/13 05:22:24;;;;;;;6.92;2.58;;;;;;;18.97;100.00;99269.66;1660986;85;21036;-64
2023/07/13 05:24:50;;;;;;;4.83;1.90;;;;;;;19.12;100.00;99271.41;1678472;84;21642;-70
2023/07/13 05:27:17;;;;;;;5.00;2.02;;;;;;;19.24;100.00;99270.33;1671351;83;21050;-62
2023/07/13 05:29:44;;;;;;;8.45;1.92;;;;;;;19.30;100.00;99275.06;1677654;84;21061;-64
2023/07/13 05:32:10;;;;;;;6.67;1.80;;;;;;;19.42;100.00;99273.93;1681265;84;21099;-62
2023/07/13 05:34:37;;;;;;;11.28;2.15;;;;;;;19.50;100.00;99288.30;1684681;83;21062;-64
2023/07/13 05:37:04;;;;;;;7.10;2.30;;;;;;;19.53;100.00;99290.66;1651412;85;21716;-63
2023/07/13 05:39:31;;;;;;;6.70;2.05;;;;;;;19.55;100.00;99291.33;1649167;85;21006;-71
2023/07/13 05:42:08;;;;;;;7.75;2.25;;;;;;;19.51;100.00;99292.61;1623069;87;21068;-71
2023/07/13 05:44:29;;;;;;;3.33;1.70;;;;;;;19.62;100.00;99300.41;1645072;85;21599;-65
2023/07/13 05:46:56;;;;;;;6.75;1.85;;;;;;;19.68;100.00;99302.52;1651771;85;21013;-63
2023/07/13 05:49:23;;;;;;;3.27;1.98;;;;;;;19.78;100.00;99305.17;1650432;85;21434;-71
2023/07/13 05:51:49;;;;;;;3.83;1.82;;;;;;;19.86;100.00;99308.78;1651006;85;21587;-69
2023/07/13 05:54:17;;;;;;;7.28;2.02;;;;;;;19.98;100.00;99309.95;1651899;86;20941;-69
2023/07/13 05:56:45;;;;;;;6.05;1.82;;;;;;;20.04;100.00;99313.34;1650935;85;21033;-71
2023/07/13 05:59:12;;;;;;;5.60;1.60;;;;;;;20.16;100.00;99316.16;1651728;87;21014;-66
2023/07/13 06:01:38;;;;;;;7.28;2.55;;;;;;;20.29;100.00;99314.03;1650483;85;21296;-65
2023/07/13 06:04:04;;;;;;;3.83;1.40;;;;;;;20.44;100.00;99318.87;1649119;86;22448;-62
2023/07/13 06:06:38;;;;;;;3.50;1.50;;;;;;;20.52;100.00;99317.66;1649552;87;21018;-69
2023/07/13 06:09:01;;;;;;;4.47;1.60;;;;;;;20.57;99.89;99318.09;1650721;86;21048;-61
2023/07/13 06:11:29;;;;;;;4.58;1.60;;;;;;;20.63;99.97;99321.97;1650116;85;20962;-62
2023/07/13 06:13:57;;;;;;;6.47;1.30;;;;;;;20.76;100.00;99323.30;1648918;85;21096;-71
2023/07/13 06:16:25;;;;;;;8.15;1.77;;;;;;;20.92;100.00;99321.81;1618509;87;21041;-72
2023/07/13 06:18:51;;;;;;;5.33;1.65;;;;;;;21.02;99.47;99325.25;1651827;85;21088;-68
2023/07/13 06:21:24;;;;;;;3.17;1.10;;;;;;;21.15;99.10;99323.08;1650674;85;21140;-63
2023/07/13 06:23:51;;;;;;;4.17;1.50;;;;;;;21.33;99.31;99315.12;1650935;85;21051;-63
2023/07/13 06:26:20;;;;;;;5.28;1.90;;;;;;;21.48;98.55;99319.43;1647308;85;21104;-63
2023/07/13 06:28:47;;;;;;;3.52;1.20;;;;;;;21.60;97.96;99328.86;1650278;85;21544;-71
2023/07/13 06:31:15;;;;;;;3.22;1.10;;;;;;;21.75;98.25;99329.64;1651662;86;21473;-62
2023/07/13 06:33:42;;;;;;;6.35;1.15;;;;;;;21.87;97.73;99328.39;1652054;85;21124;-64
2023/07/13 06:36:09;;;;;;;5.15;1.45;;;;;;;21.89;96.31;99326.42;1656470;85;21579;-74
2023/07/13 06:38:37;;;;;;;8.85;1.15;;;;;;;22.07;96.85;99326.38;1658971;85;21042;-63
2023/07/13 06:41:04;;;;;;;;;;;;;;;22.16;96.08;99329.95;1659300;85;21020;-71
2023/07/13 06:43:31;;;;;;;6.15;1.45;;;;;;;22.22;94.04;99324.86;1656581;85;20158;-67
2023/07/13 06:45:58;;;;;;;8.85;1.17;;;;;;;22.43;96.65;99329.78;1657207;85;21020;-72
2023/07/13 06:48:24;;;;;;;6.75;1.40;;;;;;;22.73;96.30;99328.44;1660007;85;21147;-69
2023/07/13 06:50:52;;;;;;;6.10;1.45;;;;;;;23.11;97.18;99328.12;1664324;85;21044;-71
2023/07/13 06:53:20;;;;;;;3.98;1.20;;;;;;;23.26;94.34;99323.81;1689829;83;21064;-63
2023/07/13 06:55:47;;;;;;;3.80;1.25;;;;;;;23.36;93.73;99331.67;1688705;83;20977;-64
2023/07/13 06:58:16;;;;;;;5.55;1.27;;;;;;;23.75;92.72;99331.89;1689385;83;20945;-71
2023/07/13 07:00:43;;;;;;;2.80;1.07;;;;;;;23.99;93.77;99331.54;1686513;83;21016;-65
2023/07/13 07:03:09;;;;;;;3.35;1.27;;;;;;;24.34;94.61;99332.48;1684571;83;21072;-76
2023/07/13 07:05:36;;;;;;;7.03;1.20;;;;;;;24.85;92.17;99332.69;1685995;83;21024;-71
2023/07/13 07:08:02;;;;;;;5.03;1.20;;;;;;;25.40;91.74;99330.37;1685372;83;21001;-69
2023/07/13 07:10:31;;;;;;;5.55;1.30;;;;;;;25.59;92.01;99334.42;1688373;83;21550;-68
2023/07/13 07:12:59;;;;;;;3.55;1.17;;;;;;;25.80;91.28;99337.78;1689052;83;21075;-73
2023/07/13 07:15:26;;;;;;;5.58;1.50;;;;;;;25.73;89.43;99338.16;1689150;83;21007;-73
2023/07/13 07:17:53;;;;;;;6.50;1.27;;;;;;;25.50;91.27;99339.00;1687560;83;21012;-73
2023/07/13 07:20:20;;;;;;;5.08;1.45;;;;;;;26.33;94.94;99327.95;1636177;86;21543;-66
2023/07/13 07:22:46;;;;;;;;;;;;;;;27.57;95.62;99320.00;1636434;86;21571;-64
2023/07/13 07:25:14;;;;;;;3.33;1.12;;;;;;;28.20;89.19;99325.47;1658568;85;20168;-69
2023/07/13 07:27:41;;;;;;;4.10;1.15;;;;;;;28.98;90.78;99324.77;1687648;83;21539;-65
2023/07/13 07:30:08;;;;;;;3.08;0.85;;;;;;;29.68;89.49;99329.95;1688491;83;21086;-65
2023/07/13 07:32:35;;;;;;;3.83;1.10;;;;;;;30.21;89.45;99323.20;1684282;83;21099;-64
2023/07/13 07:35:03;;;;;;;2.92;0.98;;;;;;;30.72;89.84;99331.89;1640534;85;21024;-65
2023/07/13 07:37:30;;;;;;;3.67;1.07;;;;;;;31.04;86.22;99325.28;1673071;84;21044;-66
2023/07/13 07:39:56;;;;;;;;;;;;;;;31.48;87.75;99324.92;1674286;84;21013;-66
2023/07/13 07:42:23;;;;;;;2.52;0.85;;;;;;;32.55;86.97;99336.51;1669291;84;20231;-65
2023/07/13 07:44:52;;;;;;;3.90;1.32;;;;;;;33.05;85.69;99340.41;1671082;84;21088;-65
2023/07/13 07:47:19;;;;;;;4.47;1.17;;;;;;;33.29;85.16;99335.08;1651008;84;21048;-64
2023/07/13 07:49:45;;;;;;;3.52;1.20;;;;;;;33.57;81.90;99342.06;1672726;84;21124;-65
2023/07/13 07:52:12;;;;;;;9.73;1.57;;;;;;;33.69;84.63;99341.27;1669020;84;20958;-68
2023/07/13 07:54:38;;;;;;;3.60;1.15;;;;;;;33.78;82.25;99344.77;1628887;86;21052;-67
2023/07/13 07:57:05;;;;;;;;;;;;;;;33.56;81.72;99346.37;1639762;86;21094;-67
2023/07/13 07:59:31;;;;;;;4.05;0.82;;;;;;;33.49;77.04;99341.55;1626873;86;20166;-65
2023/07/13 08:01:57;;;;;;;3.55;1.02;;;;;;;33.37;78.76;99336.11;1632191;86;21125;-75
2023/07/13 08:04:24;;;;;;;3.45;0.90;;;;;;;32.78;77.03;99345.81;1673965;84;21052;-73
2023/07/13 08:06:50;;;;;;;;;;;;;;;32.48;77.47;99347.38;1675475;84;21030;-67
2023/07/13 08:09:16;;;;;;;3.75;1.02;;;;;;;33.11;76.02;99346.78;1673138;84;20463;-75
2023/07/13 08:11:42;;;;;;;;;;;;;;;34.09;77.67;99345.00;1673011;84;21081;-64
2023/07/13 08:14:09;;;;;;;4.25;1.15;;;;;;;35.38;75.80;99345.28;1672918;84;20505;-73
2023/07/13 08:16:35;;;;;;;3.55;0.90;;;;;;;36.61;74.85;99347.27;1670374;84;21115;-75
2023/07/13 08:19:01;;;;;;;4.67;0.93;;;;;;;36.85;72.39;99345.64;1632453;86;21090;-76
2023/07/13 08:21:28;;;;;;;3.02;1.20;;;;;;;36.73;70.78;99343.88;1631162;86;21517;-76
2023/07/13 08:23:55;;;;;;;3.02;0.98;;;;;;;35.93;69.16;99341.59;1633986;86;21648;-78
2023/07/13 08:26:22;;;;;;;1.98;0.90;;;;;;;36.41;71.84;99342.87;1631575;86;21607;-77
2023/07/13 08:28:48;;;;;;;4.83;1.07;;;;;;;37.00;71.32;99351.28;1636330;86;21439;-65
2023/07/13 08:31:15;;;;;;;3.20;1.07;;;;;;;38.01;70.33;99355.30;1629570;86;21045;-77
2023/07/13 08:33:41;;;;;;;4.28;1.32;;;;;;;38.78;69.73;99355.19;1628766;86;21524;-69
2023/07/13 08:36:08;;;;;;;5.40;1.20;;;;;;;39.41;68.47;99348.33;1636590;86;21481;-71
2023/07/13 08:38:35;;;;;;;3.37;0.82;;;;;;;39.73;65.19;99351.34;1640052;86;21074;-74
2023/07/13 08:41:05;;;;;;;4.55;1.10;;;;;;;40.03;64.31;99351.35;1638549;85;21528;-72
2023/07/13 08:43:37;;;;;;;8.38;1.65;;;;;;;39.73;63.04;99358.98;1636934;85;21018;-73
2023/07/13 08:46:16;;;;;;;2.40;0.80;;;;;;;38.62;60.37;99354.30;1637191;87;21052;-75
2023/07/13 08:48:49;;;;;;;5.95;1.40;;;;;;;37.09;62.31;99366.10;1643805;85;21057;-71
2023/07/13 08:51:35;;;;;;;13.20;1.45;;;;;;;38.25;64.12;99361.16;1640287;85;20989;-70
2023/07/13 08:54:05;;;;;;;5.50;1.40;;;;;;;39.42;59.00;99360.89;1656497;85;21496;-77
2023/07/13 08:56:33;;;;;;;4.67;1.15;;;;;;;39.42;59.00;99360.89;1652407;85;21076;-76
2023/07/13 08:59:16;;;;;;;3.08;1.02;;;;;;;37.91;56.51;99364.72;1654216;85;21001;-77
2023/07/13 09:01:58;;;;;;;2.25;0.80;;;;;;;37.91;56.51;99364.72;1653093;85;21017;-78
2023/07/13 09:04:34;;;;;;;9.28;1.35;;;;;;;36.26;56.57;99368.77;1650834;85;21075;-67
2023/07/13 09:07:18;;;;;;;5.13;1.17;;;;;;;34.92;56.14;99367.41;1652222;85;21504;-66
2023/07/13 09:09:57;;;;;;;7.70;1.17;;;;;;;33.74;56.16;99368.47;1651138;85;21072;-72
2023/07/13 09:12:49;;;;;;;3.05;0.90;;;;;;;32.72;57.21;99372.69;1654399;85;22091;-64
2023/07/13 09:15:27;;;;;;;3.25;0.90;;;;;;;32.71;56.67;99368.34;1656193;85;21017;-67
2023/07/13 09:17:57;;;;;;;2.25;0.70;;;;;;;32.12;55.90;99364.31;1653979;85;21009;-68
2023/07/13 09:20:32;;;;;;;3.77;1.37;;;;;;;31.57;55.92;99362.23;1649480;85;21001;-71
2023/07/13 09:23:05;;;;;;;2.03;0.60;;;;;;;30.76;55.54;99368.17;1655767;85;21115;-65
2023/07/13 09:25:35;;;;;;;4.12;1.00;;;;;;;29.86;55.71;99373.23;1652983;85;21338;-66
2023/07/13 09:28:17;;;;;;;1.35;0.75;;;;;;;28.99;55.63;99376.16;1648981;85;22074;-64
2023/07/13 09:31:12;;;;;;;4.30;0.90;;;;;;;28.16;55.79;99380.06;1638361;85;21096;-74
2023/07/13 09:33:37;;;;;;;2.62;0.90;;;;;;;27.34;56.10;99380.50;1653600;85;21014;-73
2023/07/13 09:36:07;;;;;;;3.37;0.90;;;;;;;26.64;56.74;99381.86;1646124;86;21115;-71
2023/07/13 09:38:34;;;;;;;3.37;1.20;;;;;;;26.31;56.56;99390.19;1652229;85;21041;-68
2023/07/13 09:41:21;;;;;;;1.87;0.88;;;;;;;25.96;57.26;99392.48;1617410;87;21098;-72
2023/07/13 09:44:14;;;;;;;2.08;1.00;;;;;;;25.72;57.75;99392.15;1640208;86;21113;-74
2023/07/13 09:46:47;;;;;;;3.62;1.50;;;;;;;25.36;57.76;99395.89;1636434;87;21080;-64
2023/07/13 09:49:13;;;;;;;7.50;1.20;;;;;;;25.06;57.96;99389.48;1620944;87;21030;-71
2023/07/13 09:51:44;;;;;;;;;;;;;;;24.84;58.31;99401.75;1623308;87;21029;-68
2023/07/13 09:54:19;;;;;;;2.77;0.78;;;;;;;24.67;58.02;99392.97;1617470;87;20499;-63
2023/07/13 09:56:45;;;;;;;2.52;0.80;;;;;;;24.47;58.92;99397.85;1640565;86;21029;-66
2023/07/13 09:59:20;;;;;;;3.37;1.10;;;;;;;24.39;58.95;99393.33;1640497;86;21124;-69
2023/07/13 10:01:48;;;;;;;4.72;1.30;;;;;;;24.46;59.26;99388.19;1669196;84;21005;-66
2023/07/13 10:04:18;;;;;;;4.22;1.10;;;;;;;24.71;59.85;99387.12;1666276;84;21080;-72
2023/07/13 10:06:46;;;;;;;2.25;0.72;;;;;;;25.18;60.17;99391.64;1668115;84;20948;-73
2023/07/13 10:09:17;;;;;;;5.22;1.22;;;;;;;25.51;60.40;99392.78;1662108;84;21024;-68
2023/07/13 10:11:44;;;;;;;3.30;1.17;;;;;;;26.47;63.05;99390.02;1671380;84;22200;-74
2023/07/13 10:14:17;;;;;;;2.25;0.93;;;;;;;29.52;64.25;99377.71;1669312;84;21072;-74
2023/07/13 10:16:46;;;;;;;1.80;0.70;;;;;;;32.69;62.81;99381.25;1667639;84;21001;-76
2023/07/13 10:19:31;;;;;;;3.00;1.10;;;;;;;35.37;62.24;99372.11;1664853;84;21574;-64
2023/07/13 10:22:03;;;;;;;3.17;0.95;;;;;;;36.76;60.59;99385.25;1667515;84;20962;-73
2023/07/13 10:24:37;;;;;;;2.65;0.90;;;;;;;37.03;59.99;99386.17;1671004;84;21036;-63
2023/07/13 10:27:27;;;;;;;4.40;0.90;;;;;;;36.53;57.91;99387.12;1665948;84;21186;-72
2023/07/13 10:29:57;;;;;;;3.12;0.90;;;;;;;35.79;57.83;99390.80;1661663;84;20994;-64
2023/07/13 10:32:24;;;;;;;2.50;1.15;;;;;;;34.86;57.19;99388.72;1665803;84;21069;-66
2023/07/13 10:34:52;;;;;;;5.25;0.72;;;;;;;34.22;57.74;99389.16;1673709;83;21104;-77
2023/07/13 10:37:28;;;;;;;1.67;0.55;;;;;;;33.67;57.67;99387.53;1685849;84;20958;-63
2023/07/13 10:39:56;;;;;;;3.95;1.07;;;;;;;32.90;56.67;99389.95;1684993;84;21016;-62
2023/07/13 10:42:32;;;;;;;3.12;0.95;;;;;;;32.29;56.34;99389.73;1682520;83;21040;-67
2023/07/13 10:44:58;;;;;;;;;;;;;;;32.17;56.55;99390.14;1682756;84;20988;-65
2023/07/13 10:47:26;;;;;;;2.35;0.60;;;;;;;32.21;56.16;99391.87;1684444;84;20211;-65
2023/07/13 10:49:56;;;;;;;6.53;0.78;;;;;;;34.29;59.45;99387.17;1686865;83;21138;-72
2023/07/13 10:52:46;;;;;;;4.15;1.45;;;;;;;36.87;58.37;99389.75;1682131;83;21527;-65
2023/07/13 10:55:37;;;;;;;2.12;0.70;;;;;;;37.30;53.81;99382.64;1681533;84;20996;-68
2023/07/13 10:58:12;;;;;;;3.40;1.10;;;;;;;35.90;52.95;99389.09;1634357;86;21016;-74
2023/07/13 11:00:48;;;;;;;4.12;0.90;;;;;;;34.47;53.47;99395.17;1627891;86;21060;-74
2023/07/13 11:03:19;;;;;;;4.08;0.80;;;;;;;33.59;54.06;99394.09;1673341;84;21012;-71
2023/07/13 11:05:51;;;;;;;2.77;0.82;;;;;;;32.92;53.86;99402.20;1683674;84;20999;-67
2023/07/13 11:08:33;;;;;;;1.82;0.90;;;;;;;33.42;55.77;99393.07;1681037;84;20993;-71
2023/07/13 11:10:59;;;;;;;4.12;0.80;;;;;;;35.24;55.74;99393.32;1684433;84;20977;-74
2023/07/13 11:13:36;;;;;;;;;;;;;;;37.31;53.93;99389.75;1686789;85;21025;-74
2023/07/13 11:16:15;;;;;;;3.17;0.85;;;;;;;37.75;50.77;99392.37;1684300;85;20191;-67
2023/07/13 11:18:47;;;;;;;1.92;0.50;;;;;;;36.59;51.90;99391.56;1680258;84;21122;-65
2023/07/13 11:21:17;;;;;;;7.20;1.37;;;;;;;35.73;51.00;99391.80;1678411;83;20935;-73
2023/07/13 11:23:47;;;;;;;4.45;0.95;;;;;;;34.71;50.28;99406.86;1681894;83;21028;-71
2023/07/13 11:26:39;;;;;;;1.52;0.80;;;;;;;33.71;52.21;99404.13;1681517;84;20949;-70
2023/07/13 11:29:11;;;;;;;1.92;0.60;;;;;;;34.14;51.54;99404.41;1684214;83;21563;-65
2023/07/13 11:31:37;;;;;;;1.65;0.60;;;;;;;35.29;51.82;99394.25;1682875;83;21048;-74
2023/07/13 11:34:05;;;;;;;;;;;;;;;36.37;49.73;99402.36;1648523;85;20973;-74
2023/07/13 11:36:35;;;;;;;2.65;0.90;;;;;;;37.27;47.89;99402.22;1646443;86;20159;-66
2023/07/13 11:39:07;;;;;;;2.25;0.93;;;;;;;38.22;49.38;99405.31;1642019;86;21028;-68